Time;durP1;ratioP1;P1;durP2;ratioP2;P2;SDS_P1;SDS_P2;PMS_P1;PMS_P2;Temp;Humidity;BMP_temperature;BMP_pressure;BME280_temperature;BME280_humidity;BME280_pressure;Samples;Min_cycle;Max_cycle;Signal;HPM_P1;HPM_P2
2022/06/27 00:01:15;;;;;;;;;;;;;;;19.66;62.21;101335.81;1723604;81;25899;-55
2022/06/27 00:03:41;;;;;;;;;;;;;;;19.61;62.51;101339.62;1741572;81;27471;-50
2022/06/27 00:06:09;;;;;;;;;;;;;;;19.59;62.69;101343.03;1716612;81;25784;-54
2022/06/27 00:08:36;;;;;;;;;;;;;;;19.57;62.74;101336.91;1719926;81;25761;-53
2022/06/27 00:11:03;;;;;;;;;;;;;;;19.54;62.92;101336.76;1730997;81;25866;-50
2022/06/27 00:13:30;;;;;;;;;;;;;;;19.52;63.00;101334.72;1719696;82;25840;-53
2022/06/27 00:15:56;;;;;;;;;;;;;;;19.52;62.72;101339.68;1725633;81;27445;-55
2022/06/27 00:18:23;;;;;;;;;;;;;;;19.49;62.97;101335.11;1735063;82;25415;-55
2022/06/27 00:20:49;;;;;;;;;;;;;;;19.46;63.21;101339.02;1733739;81;25836;-54
2022/06/27 00:23:16;;;;;;;;;;;;;;;19.44;63.28;101338.37;1724811;82;25807;-55
2022/06/27 00:25:43;;;;;;;;;;;;;;;19.42;63.56;101338.20;1734012;82;25498;-51
2022/06/27 00:28:10;;;;;;;;;;;;;;;19.35;63.90;101339.46;1714897;82;27484;-53
2022/06/27 00:30:37;;;;;;;;;;;;;;;19.27;63.92;101334.89;1717743;82;25727;-54
2022/06/27 00:33:03;;;;;;;;;;;;;;;19.23;63.56;101338.50;1717363;82;25868;-54
2022/06/27 00:35:30;;;;;;;;;;;;;;;19.23;63.89;101339.00;1714765;82;25803;-52
2022/06/27 00:37:56;;;;;;;;;;;;;;;19.20;64.52;101344.83;1731121;80;26428;-54
2022/06/27 00:40:24;;;;;;;;;;;;;;;19.18;65.09;101346.38;1725915;80;27486;-53
2022/06/27 00:42:51;;;;;;;;;;;;;;;19.18;65.83;101340.06;1729462;81;26021;-52
2022/06/27 00:45:17;;;;;;;;;;;;;;;19.12;65.44;101337.53;1729617;80;25728;-55
2022/06/27 00:47:44;;;;;;;;;;;;;;;19.03;65.89;101332.66;1706663;81;25854;-55
2022/06/27 00:50:11;;;;;;;;;;;;;;;19.02;65.82;101342.36;1698410;82;25868;-54
2022/06/27 00:52:38;;;;;;;;;;;;;;;19.04;65.50;101343.91;1706339;82;27506;-53
2022/06/27 00:55:07;;;;;;;;;;;;;;;19.08;65.55;101341.66;1700784;82;26430;-54
2022/06/27 00:57:34;;;;;;;;;;;;;;;19.10;65.22;101344.20;1699185;82;25894;-54
2022/06/27 01:00:01;;;;;;;;;;;;;;;19.10;65.43;101349.13;1698277;82;25892;-54
2022/06/27 01:02:28;;;;;;;;;;;;;;;19.11;65.25;101354.09;1700801;82;26211;-53
2022/06/27 01:04:54;;;;;;;;;;;;;;;19.13;65.30;101359.69;1706466;81;27546;-54
2022/06/27 01:07:20;;;;;;;;;;;;;;;19.18;65.28;101353.70;1697259;82;25844;-55
2022/06/27 01:09:47;;;;;;;;;;;;;;;19.11;64.91;101347.27;1707490;82;25601;-54
2022/06/27 01:12:14;;;;;;;;;;;;;;;19.05;65.71;101348.30;1708155;82;25801;-54
2022/06/27 01:14:41;;;;;;;;;;;;;;;19.04;65.73;101354.81;1705914;82;26009;-53
2022/06/27 01:17:10;;;;;;;;;;;;;;;19.04;65.55;101345.27;1700457;82;27477;-54
2022/06/27 01:19:38;;;;;;;;;;;;;;;19.00;66.07;101338.98;1696362;82;25817;-51
2022/06/27 01:22:10;;;;;;;;;;;;;;;18.96;65.99;101344.44;1703887;83;25712;-53
2022/06/27 01:24:37;;;;;;;;;;;;;;;18.97;65.86;101340.69;1694057;82;25914;-53
2022/06/27 01:27:07;;;;;;;;;;;;;;;19.03;66.01;101342.69;1701726;83;27399;-54
2022/06/27 01:29:34;;;;;;;;;;;;;;;18.97;66.37;101337.44;1709760;83;27644;-54
2022/06/27 01:32:01;;;;;;;;;;;;;;;18.87;66.39;101341.72;1704879;83;25920;-53
2022/06/27 01:34:29;;;;;;;;;;;;;;;18.76;66.13;101344.33;1704517;83;25472;-54
2022/06/27 01:36:55;;;;;;;;;;;;;;;18.78;66.61;101349.06;1714929;82;25852;-53
2022/06/27 01:39:24;;;;;;;;;;;;;;;18.79;67.17;101348.58;1711404;80;26197;-54
2022/06/27 01:41:55;;;;;;;;;;;;;;;18.71;67.88;101348.08;1752484;79;27583;-54
2022/06/27 01:44:27;;;;;;;;;;;;;;;18.63;67.53;101354.92;1768099;80;25928;-54
2022/06/27 01:46:57;;;;;;;;;;;;;;;18.57;67.22;101357.00;1730434;80;25849;-52
2022/06/27 01:49:25;;;;;;;;;;;;;;;18.55;67.72;101356.31;1704605;81;26754;-54
2022/06/27 01:51:52;;;;;;;;;;;;;;;18.51;67.93;101353.09;1707634;83;25771;-54
2022/06/27 01:54:21;;;;;;;;;;;;;;;18.46;67.63;101357.70;1708929;82;27456;-54
2022/06/27 01:56:54;;;;;;;;;;;;;;;18.43;67.79;101359.40;1709845;83;25753;-53
2022/06/27 01:59:24;;;;;;;;;;;;;;;18.44;68.34;101361.63;1707848;82;25930;-54
2022/06/27 02:01:53;;;;;;;;;;;;;;;18.44;68.06;101357.55;1699286;83;26540;-54
2022/06/27 02:04:20;;;;;;;;;;;;;;;18.40;68.61;101359.77;1709090;83;25786;-53
2022/06/27 02:06:47;;;;;;;;;;;;;;;18.35;68.11;101358.59;1708082;83;27533;-54
2022/06/27 02:09:16;;;;;;;;;;;;;;;18.29;68.43;101366.93;1709660;83;25798;-54
2022/06/27 02:11:45;;;;;;;;;;;;;;;18.23;68.06;101366.27;1709955;83;25716;-54
2022/06/27 02:14:13;;;;;;;;;;;;;;;18.15;68.90;101372.04;1701872;82;25842;-55
2022/06/27 02:16:43;;;;;;;;;;;;;;;18.11;68.98;101372.55;1708531;82;25797;-54
2022/06/27 02:19:17;;;;;;;;;;;;;;;18.04;68.97;101368.81;1708129;83;27538;-53
2022/06/27 02:21:44;;;;;;;;;;;;;;;18.02;69.69;101373.08;1702685;83;25800;-54
2022/06/27 02:24:12;;;;;;;;;;;;;;;18.03;69.09;101383.45;1708184;82;25512;-55
2022/06/27 02:26:40;;;;;;;;;;;;;;;18.04;68.90;101386.52;1737279;82;25811;-54
2022/06/27 02:29:07;;;;;;;;;;;;;;;18.10;69.01;101379.05;1696247;82;25726;-54
2022/06/27 02:31:34;;;;;;;;;;;;;;;18.13;68.58;101382.27;1721987;82;28261;-53
2022/06/27 02:34:01;;;;;;;;;;;;;;;18.21;68.39;101381.92;1718856;81;25992;-54
2022/06/27 02:36:34;;;;;;;;;;;;;;;18.30;68.26;101382.25;1719857;81;25769;-53
2022/06/27 02:39:03;;;;;;;;;;;;;;;18.34;68.42;101386.31;1725860;81;25812;-54
2022/06/27 02:41:33;;;;;;;;;;;;;;;18.26;68.55;101385.83;1748760;80;25944;-53
2022/06/27 02:44:08;;;;;;;;;;;;;;;18.22;69.01;101387.71;1750883;80;27404;-54
2022/06/27 02:46:35;;;;;;;;;;;;;;;18.22;69.42;101383.63;1737327;80;25918;-53
2022/06/27 02:49:03;;;;;;;;;;;;;;;18.20;69.28;101385.14;1688264;82;25764;-54
2022/06/27 02:51:42;;;;;;;;;;;;;;;18.15;69.76;101390.27;1694973;83;25866;-55
2022/06/27 02:54:12;;;;;;;;;;;;;;;18.10;69.62;101398.11;1691236;83;25829;-55
2022/06/27 02:56:43;;;;;;;;;;;;;;;18.04;69.44;101396.91;1687285;82;28330;-55
2022/06/27 02:59:19;;;;;;;;;;;;;;;18.02;70.13;101394.03;1700668;83;25980;-54
2022/06/27 03:01:49;;;;;;;;;;;;;;;17.99;70.34;101396.55;1700734;83;25909;-54
2022/06/27 03:04:17;;;;;;;;;;;;;;;17.96;70.37;101387.39;1703530;83;26549;-52
2022/06/27 03:06:46;;;;;;;;;;;;;;;17.97;69.85;101391.81;1687604;83;25757;-53
2022/06/27 03:09:13;;;;;;;;;;;;;;;18.05;69.69;101396.39;1697128;82;27482;-53
2022/06/27 03:11:42;;;;;;;;;;;;;;;18.17;69.60;101391.44;1694318;83;25433;-55
2022/06/27 03:14:09;;;;;;;;;;;;;;;18.27;69.77;101397.07;1703638;83;25875;-54
2022/06/27 03:16:36;;;;;;;;;;;;;;;18.34;69.01;101397.73;1695964;82;25808;-54
2022/06/27 03:19:03;;;;;;;;;;;;;;;18.34;68.98;101394.48;1705741;82;25938;-53
2022/06/27 03:21:32;;;;;;;;;;;;;;;18.36;69.43;101399.25;1687057;83;27509;-54
2022/06/27 03:24:01;;;;;;;;;;;;;;;18.35;68.99;101399.44;1699939;83;25903;-55
2022/06/27 03:26:29;;;;;;;;;;;;;;;18.35;68.93;101405.72;1705327;83;25760;-54
2022/06/27 03:28:57;;;;;;;;;;;;;;;18.35;68.71;101413.89;1706909;83;25792;-54
2022/06/27 03:31:23;;;;;;;;;;;;;;;18.39;69.14;101407.59;1705469;82;25862;-55
2022/06/27 03:33:50;;;;;;;;;;;;;;;18.39;69.22;101404.38;1706721;81;27480;-54
2022/06/27 03:36:28;;;;;;;;;;;;;;;18.36;69.10;101401.14;1701739;82;25839;-57
2022/06/27 03:38:55;;;;;;;;;;;;;;;18.36;69.79;101410.16;1697700;83;25784;-56
2022/06/27 03:41:22;;;;;;;;;;;;;;;18.35;69.46;101402.16;1719891;80;25861;-55
2022/06/27 03:43:50;;;;;;;;;;;;;;;18.32;69.89;101404.73;1728766;80;25839;-55
2022/06/27 03:46:17;;;;;;;;;;;;;;;18.27;69.93;101409.33;1728419;82;27463;-53
2022/06/27 03:51:35;;;;;;;;;;;;;;;18.34;70.08;101413.55;1701874;81;25791;-55
2022/06/27 03:54:01;;;;;;;;;;;;;;;18.39;69.86;101410.31;1710937;82;25826;-55
2022/06/27 03:56:29;;;;;;;;;;;;;;;18.42;69.91;101412.17;1710825;82;25957;-54
2022/06/27 03:58:55;;;;;;;;;;;;;;;18.47;69.65;101415.74;1695265;83;27047;-54
2022/06/27 04:01:22;;;;;;;;;;;;;;;18.52;69.54;101412.01;1703604;82;25795;-55
2022/06/27 04:03:49;;;;;;;;;;;;;;;18.56;69.59;101416.59;1712363;82;25834;-55
2022/06/27 04:06:17;;;;;;;;;;;;;;;18.57;69.51;101418.30;1702424;82;25794;-55
2022/06/27 04:08:44;;;;;;;;;;;;;;;18.58;69.88;101418.12;1712786;83;25895;-54
2022/06/27 04:11:10;;;;;;;;;;;;;;;18.60;69.74;101420.16;1706299;83;27543;-56
2022/06/27 04:13:39;;;;;;;;;;;;;;;18.64;69.91;101425.28;1701059;83;25897;-56
2022/06/27 04:16:22;;;;;;;;;;;;;;;18.69;69.50;101411.44;1710885;82;25791;-55
2022/06/27 04:18:50;;;;;;;;;;;;;;;18.76;69.56;101422.50;1670894;82;26008;-55
2022/06/27 04:21:19;;;;;;;;;;;;;;;18.78;69.47;101422.66;1679252;83;25816;-55
2022/06/27 04:23:48;;;;;;;;;;;;;;;18.84;69.19;101421.64;1693270;82;28404;-55
2022/06/27 04:26:17;;;;;;;;;;;;;;;18.90;69.49;101421.80;1678506;82;25729;-55
2022/06/27 04:28:45;;;;;;;;;;;;;;;18.98;69.29;101421.45;1668763;82;25923;-55
2022/06/27 04:31:13;;;;;;;;;;;;;;;19.03;69.17;101426.72;1708235;83;25848;-55
2022/06/27 04:33:40;;;;;;;;;;;;;;;19.07;69.06;101429.95;1716549;81;25710;-55
2022/06/27 04:36:08;;;;;;;;;;;;;;;19.11;68.98;101429.08;1711698;82;27451;-55
2022/06/27 04:38:36;;;;;;;;;;;;;;;19.08;69.14;101420.22;1712376;81;25799;-55
2022/06/27 04:41:22;;;;;;;;;;;;;;;19.14;69.04;101423.28;1713678;80;25801;-55
2022/06/27 04:43:49;;;;;;;;;;;;;;;19.20;68.75;101417.94;1750198;80;25804;-55
2022/06/27 04:46:16;;;;;;;;;;;;;;;19.28;68.86;101413.47;1746730;81;25846;-55
2022/06/27 04:48:55;;;;;;;;;;;;;;;19.37;68.57;101424.17;1725026;82;27438;-55
2022/06/27 04:51:22;;;;;;;;;;;;;;;19.45;68.49;101422.43;1721098;81;25940;-55
2022/06/27 04:53:51;;;;;;;;;;;;;;;19.49;68.30;101426.52;1729322;81;25496;-54
2022/06/27 04:56:17;;;;;;;;;;;;;;;19.59;68.26;101416.72;1730167;82;25827;-55
2022/06/27 04:58:45;;;;;;;;;;;;;;;19.67;68.05;101418.89;1726498;81;25844;-55
2022/06/27 05:01:13;;;;;;;;;;;;;;;19.72;67.79;101425.17;1720845;81;27461;-53
2022/06/27 05:03:54;;;;;;;;;;;;;;;19.75;67.70;101428.89;1734714;81;26068;-55
2022/06/27 05:06:22;;;;;;;;;;;;;;;19.75;67.61;101426.69;1728353;81;25752;-56
2022/06/27 05:08:49;;;;;;;;;;;;;;;19.79;67.84;101430.73;1722224;81;26451;-54
2022/06/27 05:11:16;;;;;;;;;;;;;;;19.81;67.80;101425.95;1719591;81;25935;-56
2022/06/27 05:13:43;;;;;;;;;;;;;;;19.84;67.80;101427.80;1733357;82;27494;-56
2022/06/27 05:16:12;;;;;;;;;;;;;;;19.91;67.87;101424.37;1730874;81;26017;-55
2022/06/27 05:18:39;;;;;;;;;;;;;;;19.94;67.52;101423.52;1721180;82;26137;-55
2022/06/27 05:21:06;;;;;;;;;;;;;;;20.00;67.47;101421.41;1720289;82;25768;-54
2022/06/27 05:23:33;;;;;;;;;;;;;;;20.05;67.62;101426.33;1722778;81;25710;-55
2022/06/27 05:26:02;;;;;;;;;;;;;;;20.06;67.78;101425.30;1726250;81;27480;-55
2022/06/27 05:28:29;;;;;;;;;;;;;;;20.08;67.86;101423.73;1722767;81;25776;-56
2022/06/27 05:30:56;;;;;;;;;;;;;;;20.14;67.54;101417.03;1725486;81;25744;-55
2022/06/27 05:33:23;;;;;;;;;;;;;;;20.26;67.60;101420.70;1723904;81;25709;-55
2022/06/27 05:35:50;;;;;;;;;;;;;;;20.33;67.34;101418.38;1741613;81;26139;-55
2022/06/27 05:38:18;;;;;;;;;;;;;;;20.43;67.17;101415.91;1727419;81;28308;-53
2022/06/27 05:40:46;;;;;;;;;;;;;;;20.48;66.96;101406.65;1708374;82;25725;-54
2022/06/27 05:43:14;;;;;;;;;;;;;;;20.56;66.94;101408.43;1716987;81;25824;-54
2022/06/27 05:45:41;;;;;;;;;;;;;;;20.63;66.71;101414.34;1733479;81;25784;-53
2022/06/27 05:48:28;;;;;;;;;;;;;;;20.67;66.44;101409.84;1727468;80;25825;-54
2022/06/27 05:51:13;;;;;;;;;;;;;;;20.77;66.35;101411.31;1714865;82;27160;-54
2022/06/27 05:53:41;;;;;;;;;;;;;;;20.88;66.26;101413.25;1730298;81;25805;-53
2022/06/27 05:56:09;;;;;;;;;;;;;;;20.96;65.94;101410.41;1732709;81;25811;-55
2022/06/27 05:58:37;;;;;;;;;;;;;;;21.03;65.76;101404.51;1728658;81;25841;-54
2022/06/27 06:01:06;;;;;;;;;;;;;;;21.11;65.82;101413.98;1730613;80;25776;-53
2022/06/27 06:03:35;;;;;;;;;;;;;;;21.16;65.49;101405.20;1735926;80;27483;-54
2022/06/27 06:06:03;;;;;;;;;;;;;;;21.26;65.36;101407.13;1721470;80;25773;-55
2022/06/27 06:08:31;;;;;;;;;;;;;;;21.38;65.23;101404.73;1740050;80;25893;-55
2022/06/27 06:10:57;;;;;;;;;;;;;;;21.51;65.11;101407.30;1720513;80;26604;-55
2022/06/27 06:13:25;;;;;;;;;;;;;;;21.67;64.93;101418.04;1722906;81;25817;-55
2022/06/27 06:15:54;;;;;;;;;;;;;;;21.81;64.55;101402.59;1726514;81;27488;-54
2022/06/27 06:18:21;;;;;;;;;;;;;;;21.93;64.16;101406.16;1722304;80;26473;-54
2022/06/27 06:20:50;;;;;;;;;;;;;;;22.00;63.66;101407.09;1714850;81;25779;-54
2022/06/27 06:23:16;;;;;;;;;;;;;;;22.11;63.35;101404.33;1729083;80;25741;-55
2022/06/27 06:25:45;;;;;;;;;;;;;;;22.25;63.01;101405.29;1730208;81;26433;-54
2022/06/27 06:28:11;;;;;;;;;;;;;;;22.39;62.85;101415.30;1715199;82;27480;-55
2022/06/27 06:30:38;;;;;;;;;;;;;;;22.50;61.97;101412.58;1715854;81;25483;-56
2022/06/27 06:33:07;;;;;;;;;;;;;;;22.59;61.45;101413.27;1722761;81;25852;-56
2022/06/27 06:35:35;;;;;;;;;;;;;;;22.63;61.13;101419.52;1708014;80;25843;-53
2022/06/27 06:38:03;;;;;;;;;;;;;;;22.69;60.96;101413.75;1716033;82;25809;-55
2022/06/27 06:40:30;;;;;;;;;;;;;;;22.75;60.30;101413.48;1718784;82;27541;-55
2022/06/27 06:43:00;;;;;;;;;;;;;;;22.78;60.36;101414.42;1716677;82;25859;-55
2022/06/27 06:45:33;;;;;;;;;;;;;;;22.82;59.96;101411.08;1701441;81;25765;-56
2022/06/27 06:48:17;;;;;;;;;;;;;;;22.89;60.38;101407.00;1721422;81;25890;-55
2022/06/27 06:50:43;;;;;;;;;;;;;;;23.01;60.49;101408.64;1718549;81;25729;-54
2022/06/27 06:53:11;;;;;;;;;;;;;;;23.09;60.00;101411.21;1723335;80;27416;-54
2022/06/27 06:55:37;;;;;;;;;;;;;;;23.17;59.81;101408.00;1716577;82;25962;-55
2022/06/27 06:58:05;;;;;;;;;;;;;;;23.26;59.39;101406.80;1700817;82;26642;-53
2022/06/27 07:00:32;;;;;;;;;;;;;;;23.38;59.64;101401.02;1693578;83;26393;-55
2022/06/27 07:02:59;;;;;;;;;;;;;;;23.50;59.26;101401.80;1691561;82;25938;-53
2022/06/27 07:05:27;;;;;;;;;;;;;;;23.61;59.27;101397.08;1715428;83;28300;-54
2022/06/27 07:07:55;;;;;;;;;;;;;;;23.74;59.00;101398.46;1715019;82;25755;-55
2022/06/27 07:10:22;;;;;;;;;;;;;;;23.83;58.64;101393.63;1717933;82;25861;-55
2022/06/27 07:12:50;;;;;;;;;;;;;;;23.97;57.80;101392.28;1712958;82;25829;-55
2022/06/27 07:15:17;;;;;;;;;;;;;;;24.07;57.33;101399.59;1713803;82;25788;-55
2022/06/27 07:17:49;;;;;;;;;;;;;;;24.15;57.00;101395.25;1740906;80;27494;-55
2022/06/27 07:20:21;;;;;;;;;;;;;;;24.26;56.43;101394.30;1729845;80;25803;-55
2022/06/27 07:22:49;;;;;;;;;;;;;;;24.41;55.53;101398.20;1722950;80;25629;-55
2022/06/27 07:25:17;;;;;;;;;;;;;;;24.50;54.61;101399.13;1723415;80;25867;-55
2022/06/27 07:27:43;;;;;;;;;;;;;;;24.61;54.90;101391.29;1725305;81;25814;-55
2022/06/27 07:30:12;;;;;;;;;;;;;;;24.71;54.50;101384.84;1734667;80;27492;-55
2022/06/27 07:32:40;;;;;;;;;;;;;;;24.83;54.54;101389.97;1738911;80;26213;-54
2022/06/27 07:35:11;;;;;;;;;;;;;;;24.90;53.57;101395.47;1730593;80;25760;-55
2022/06/27 07:37:48;;;;;;;;;;;;;;;24.98;52.56;101392.47;1719567;80;26041;-55
2022/06/27 07:40:11;;;;;;;;;;;;;;;25.12;53.04;101391.05;1725575;80;25777;-55
2022/06/27 07:42:38;;;;;;;;;;;;;;;25.23;52.97;101391.75;1722761;82;27480;-55
2022/06/27 07:45:08;;;;;;;;;;;;;;;25.33;51.43;101384.93;1714351;82;25870;-57
2022/06/27 07:47:35;;;;;;;;;;;;;;;25.43;51.06;101383.41;1692558;81;25724;-55
2022/06/27 07:50:04;;;;;;;;;;;;;;;25.51;51.52;101380.91;1696870;83;25810;-55
2022/06/27 07:53:11;;;;;;;;;;;;;;;25.61;50.98;101379.89;1727492;82;25823;-54
2022/06/27 07:54:59;;;;;;;;;;;;;;;25.72;51.23;101386.63;1730281;80;27495;-54
2022/06/27 07:57:25;;;;;;;;;;;;;;;25.78;49.39;101380.73;1716967;80;25708;-55
2022/06/27 07:59:54;;;;;;;;;;;;;;;25.87;50.20;101381.31;1714026;81;25757;-54
2022/06/27 08:02:20;;;;;;;;;;;;;;;25.99;49.39;101380.05;1715842;81;25784;-55
2022/06/27 08:04:47;;;;;;;;;;;;;;;26.09;49.39;101373.53;1727451;80;25743;-55
2022/06/27 08:07:14;;;;;;;;;;;;;;;26.21;49.32;101378.63;1724079;81;27457;-55
2022/06/27 08:09:42;;;;;;;;;;;;;;;26.30;48.96;101373.66;1727668;80;25845;-55
2022/06/27 08:12:10;;;;;;;;;;;;;;;26.39;48.46;101372.30;1724458;81;25801;-54
2022/06/27 08:14:37;;;;;;;;;;;;;;;26.47;46.59;101379.44;1722832;81;25803;-52
2022/06/27 08:17:05;;;;;;;;;;;;;;;26.50;47.60;101369.86;1720844;82;25862;-53
2022/06/27 08:19:31;;;;;;;;;;;;;;;26.61;47.72;101368.25;1715610;82;26858;-55
2022/06/27 08:21:58;;;;;;;;;;;;;;;26.77;47.38;101370.97;1713783;82;25682;-55
2022/06/27 08:24:25;;;;;;;;;;;;;;;26.93;47.36;101367.59;1713508;82;25722;-55
2022/06/27 08:26:53;;;;;;;;;;;;;;;27.08;47.13;101368.58;1714416;82;25872;-54
2022/06/27 08:29:20;;;;;;;;;;;;;;;27.28;45.02;101361.94;1721283;81;26667;-54
2022/06/27 08:31:48;;;;;;;;;;;;;;;27.40;45.91;101364.19;1724402;80;28223;-55
2022/06/27 08:34:15;;;;;;;;;;;;;;;27.54;44.79;101365.42;1719625;82;26252;-55
2022/06/27 08:36:41;;;;;;;;;;;;;;;27.66;45.33;101364.90;1729820;81;25838;-55
2022/06/27 08:39:17;;;;;;;;;;;;;;;27.78;44.25;101361.63;1738861;80;25850;-55
2022/06/27 08:41:45;;;;;;;;;;;;;;;27.93;43.97;101362.56;1737483;81;25834;-55
2022/06/27 08:44:13;;;;;;;;;;;;;;;28.07;44.12;101360.45;1719389;81;28239;-55
2022/06/27 08:46:41;;;;;;;;;;;;;;;28.25;44.07;101362.24;1739754;80;25916;-55
2022/06/27 08:49:12;;;;;;;;;;;;;;;28.49;44.47;101356.72;1740535;80;27035;-55
2022/06/27 08:51:38;;;;;;;;;;;;;;;28.67;41.95;101361.25;1708574;82;25950;-55
2022/06/27 08:54:06;;;;;;;;;;;;;;;28.83;43.16;101347.23;1701808;82;25744;-55
2022/06/27 08:56:33;;;;;;;;;;;;;;;29.05;42.05;101354.32;1712701;82;27552;-53
2022/06/27 08:59:00;;;;;;;;;;;;;;;29.19;42.29;101348.47;1714664;82;27263;-56
2022/06/27 09:01:29;;;;;;;;;;;;;;;29.42;41.99;101341.19;1713165;82;25776;-55
2022/06/27 09:04:06;;;;;;;;;;;;;;;29.64;41.14;101332.98;1716996;82;25997;-52
2022/06/27 09:06:36;;;;;;;;;;;;;;;29.83;38.98;101331.64;1732318;81;25759;-55
2022/06/27 09:09:12;;;;;;;;;;;;;;;30.04;40.07;101336.70;1711954;82;27642;-54
2022/06/27 09:11:37;;;;;;;;;;;;;;;30.19;38.40;101334.16;1717019;82;25717;-56
2022/06/27 09:14:05;;;;;;;;;;;;;;;30.17;38.34;101334.95;1712834;82;26483;-55
2022/06/27 09:16:33;;;;;;;;;;;;;;;30.27;36.94;101335.66;1698703;82;25899;-56
2022/06/27 09:18:59;;;;;;;;;;;;;;;30.21;36.24;101338.08;1714508;81;25781;-54
2022/06/27 09:21:27;;;;;;;;;;;;;;;30.05;37.70;101328.11;1713182;82;27449;-55
2022/06/27 09:23:58;;;;;;;;;;;;;;;30.18;36.95;101334.41;1717351;81;25870;-56
2022/06/27 09:26:29;;;;;;;;;;;;;;;30.48;37.02;101322.91;1723555;80;25810;-55
2022/06/27 09:28:59;;;;;;;;;;;;;;;30.89;38.22;101319.84;1730002;80;25984;-56
2022/06/27 09:31:32;;;;;;;;;;;;;;;31.28;37.01;101316.11;1731953;80;25770;-56
2022/06/27 09:34:14;;;;;;;;;;;;;;;31.73;34.46;101308.48;1724591;80;27504;-56
2022/06/27 09:36:42;;;;;;;;;;;;;;;31.90;33.19;101307.78;1744223;79;25850;-57
2022/06/27 09:39:24;;;;;;;;;;;;;;;31.71;34.73;101312.08;1716823;82;26638;-56
2022/06/27 09:41:54;;;;;;;;;;;;;;;31.49;34.61;101315.21;1719944;80;25819;-56
2022/06/27 09:44:24;;;;;;;;;;;;;;;31.40;34.86;101309.84;1734801;80;25806;-56
2022/06/27 09:47:12;;;;;;;;;;;;;;;31.32;34.84;101311.15;1724021;80;27454;-56
2022/06/27 09:49:41;;;;;;;;;;;;;;;31.33;35.41;101313.39;1727901;80;25846;-57
2022/06/27 09:52:11;;;;;;;;;;;;;;;31.27;35.31;101308.87;1736784;80;25719;-54
2022/06/27 09:54:40;;;;;;;;;;;;;;;31.22;35.32;101305.48;1715276;80;26393;-55
2022/06/27 09:57:08;;;;;;;;;;;;;;;31.10;35.53;101305.66;1723174;80;25899;-56
2022/06/27 09:59:35;;;;;;;;;;;;;;;31.04;35.34;101301.12;1729575;80;27544;-56
2022/06/27 10:02:04;;;;;;;;;;;;;;;30.98;34.54;101305.78;1720349;80;26017;-57
2022/06/27 10:04:35;;;;;;;;;;;;;;;30.91;35.13;101304.58;1734846;81;25883;-55
2022/06/27 10:07:03;;;;;;;;;;;;;;;30.92;34.75;101299.88;1733949;80;25958;-55
2022/06/27 10:09:32;;;;;;;;;;;;;;;30.83;34.50;101299.49;1724630;80;26067;-56
2022/06/27 10:12:27;;;;;;;;;;;;;;;30.71;34.12;101295.47;1725981;80;29612;-56
2022/06/27 10:15:15;;;;;;;;;;;;;;;30.66;34.60;101301.51;1708282;81;25796;-55
2022/06/27 10:17:49;;;;;;;;;;;;;;;30.59;35.18;101299.77;1730602;80;25442;-55
2022/06/27 10:20:20;;;;;;;;;;;;;;;30.52;35.21;101294.97;1726166;81;25858;-55
2022/06/27 10:23:11;;;;;;;;;;;;;;;30.53;35.21;101293.84;1735900;80;25726;-55
2022/06/27 10:25:44;;;;;;;;;;;;;;;30.53;35.57;101282.73;1731110;81;27494;-56
2022/06/27 10:28:12;;;;;;;;;;;;;;;30.52;35.42;101288.56;1742671;80;26173;-54
2022/06/27 10:30:48;;;;;;;;;;;;;;;30.52;35.48;101283.02;1732257;80;25934;-55
2022/06/27 10:33:22;;;;;;;;;;;;;;;30.55;35.68;101282.50;1729006;81;26312;-56
2022/06/27 10:35:59;;;;;;;;;;;;;;;30.47;35.60;101280.16;1730172;80;25714;-55
2022/06/27 10:38:45;;;;;;;;;;;;;;;30.35;36.00;101276.94;1737464;80;27486;-55
2022/06/27 10:41:22;;;;;;;;;;;;;;;30.35;35.47;101277.47;1745670;81;25840;-57
2022/06/27 10:43:56;;;;;;;;;;;;;;;30.26;35.67;101284.03;1720889;80;25727;-55
2022/06/27 10:46:27;;;;;;;;;;;;;;;30.27;35.40;101278.78;1729799;81;26384;-55
2022/06/27 10:48:56;;;;;;;;;;;;;;;30.29;35.83;101277.98;1718487;81;25739;-53
2022/06/27 10:51:30;;;;;;;;;;;;;;;30.38;36.16;101279.75;1730866;80;28286;-55
2022/06/27 10:54:08;;;;;;;;;;;;;;;30.48;35.76;101274.89;1727744;80;26109;-55
2022/06/27 10:56:47;;;;;;;;;;;;;;;30.61;35.53;101278.69;1722965;82;25741;-56
2022/06/27 10:59:16;;;;;;;;;;;;;;;30.73;36.14;101278.54;1726929;81;26856;-55
2022/06/27 11:01:53;;;;;;;;;;;;;;;30.80;35.77;101276.95;1735077;80;25760;-55
2022/06/27 11:04:28;;;;;;;;;;;;;;;30.79;35.48;101269.19;1716210;82;27678;-55
2022/06/27 11:06:57;;;;;;;;;;;;;;;30.86;35.77;101270.35;1719831;81;25763;-55
2022/06/27 11:09:43;;;;;;;;;;;;;;;31.02;35.26;101268.02;1720277;82;25887;-55
2022/06/27 11:12:12;;;;;;;;;;;;;;;31.06;34.09;101267.80;1727640;81;26764;-55
2022/06/27 11:15:00;;;;;;;;;;;;;;;31.10;34.75;101258.95;1734773;81;25704;-57
2022/06/27 11:17:32;;;;;;;;;;;;;;;31.26;34.66;101259.41;1736582;81;28144;-55
2022/06/27 11:20:12;;;;;;;;;;;;;;;31.42;33.81;101256.22;1713803;82;43931;-56
2022/06/27 11:22:40;;;;;;;;;;;;;;;31.67;34.31;101254.77;1717317;81;26434;-56
2022/06/27 11:25:07;;;;;;;;;;;;;;;31.89;32.96;101251.86;1717947;82;25789;-56
2022/06/27 11:27:55;;;;;;;;;;;;;;;32.20;33.08;101251.19;1715553;82;25940;-56
2022/06/27 11:33:14;;;;;;;;;;;;;;;32.95;32.83;101249.53;1716406;81;26739;-56
2022/06/27 11:35:40;;;;;;;;;;;;;;;33.64;29.93;101233.97;1733952;80;25831;-56
2022/06/27 11:38:07;;;;;;;;;;;;;;;33.97;30.31;101235.33;1728113;80;26455;-57
2022/06/27 11:40:34;;;;;;;;;;;;;;;34.39;30.20;101235.19;1732306;81;25724;-56
2022/06/27 11:43:01;;;;;;;;;;;;;;;34.60;29.13;101238.17;1728363;82;27523;-56
2022/06/27 11:45:42;;;;;;;;;;;;;;;34.62;29.10;101240.66;1731439;81;25758;-57
2022/06/27 11:48:14;;;;;;;;;;;;;;;34.72;27.42;101235.59;1695650;82;25788;-56
2022/06/27 11:50:41;;;;;;;;;;;;;;;34.61;28.23;101231.47;1710576;81;25841;-56
2022/06/27 11:53:08;;;;;;;;;;;;;;;34.64;29.24;101230.05;1721998;80;25929;-55
2022/06/27 11:55:35;;;;;;;;;;;;;;;34.40;27.79;101227.09;1695326;82;27489;-57
2022/06/27 11:58:02;;;;;;;;;;;;;;;34.36;29.27;101225.41;1713914;80;25839;-56
2022/06/27 12:00:31;;;;;;;;;;;;;;;34.47;28.10;101217.86;1715674;82;25703;-57
2022/06/27 12:03:06;;;;;;;;;;;;;;;34.28;27.80;101225.46;1727465;81;25847;-56
2022/06/27 12:05:34;;;;;;;;;;;;;;;34.28;27.62;101217.63;1719859;82;25699;-56
2022/06/27 12:08:06;;;;;;;;;;;;;;;34.31;27.00;101217.89;1726037;81;27520;-55
2022/06/27 12:10:43;;;;;;;;;;;;;;;34.36;28.07;101207.83;1716638;81;25803;-56
2022/06/27 12:13:15;;;;;;;;;;;;;;;34.61;28.49;101210.52;1741062;80;25881;-56
2022/06/27 12:15:45;;;;;;;;;;;;;;;35.04;28.43;101205.78;1721447;80;25874;-55
2022/06/27 12:18:12;;;;;;;;;;;;;;;35.32;26.56;101208.05;1735370;80;26136;-56
2022/06/27 12:20:41;;;;;;;;;;;;;;;35.30;25.80;101211.16;1733730;80;27532;-56
2022/06/27 12:23:08;;;;;;;;;;;;;;;35.33;24.66;101206.35;1740766;80;25718;-55
2022/06/27 12:25:35;;;;;;;;;;;;;;;35.23;24.87;101208.69;1742290;80;25948;-55
2022/06/27 12:28:05;;;;;;;;;;;;;;;34.94;26.74;101208.08;1734472;80;26369;-55
2022/06/27 12:30:33;;;;;;;;;;;;;;;34.94;27.05;101215.06;1736552;80;25772;-56
2022/06/27 12:33:00;;;;;;;;;;;;;;;34.88;27.08;101217.60;1738672;80;27592;-56
2022/06/27 12:35:27;;;;;;;;;;;;;;;35.02;26.88;101213.63;1737826;80;25511;-56
2022/06/27 12:37:57;;;;;;;;;;;;;;;35.24;26.55;101217.90;1746474;80;25462;-55
2022/06/27 12:40:23;;;;;;;;;;;;;;;35.29;26.81;101207.23;1732904;80;25872;-56
2022/06/27 12:42:50;;;;;;;;;;;;;;;35.51;25.48;101217.42;1727758;81;25752;-56
2022/06/27 12:45:17;;;;;;;;;;;;;;;35.31;25.99;101213.37;1730407;80;29639;-56
2022/06/27 12:47:44;;;;;;;;;;;;;;;35.26;26.36;101214.25;1697144;83;25708;-56
2022/06/27 12:50:11;;;;;;;;;;;;;;;34.90;25.93;101210.34;1714543;82;25841;-56
2022/06/27 12:52:37;;;;;;;;;;;;;;;34.42;26.44;101214.54;1718307;82;25809;-56